Skidmore, Missouri
Current Conditions -  °F | °C
As of 4:55 PM on Thursday 27 Nov 2014 (Local Time) from KICL Reporting Station
Clear Clear  
Wind Chill: 15°   Ceiling: Unl
Heat Index: 23°   Visibility: 10mi
Dew Point: 14°   Wind: 7mph
Humidity: 68%   Direction: 120°ESE
Pressure: 30.39"   Gusts: NA
Location:  40.29°N, 95.08°W
Report Text: KICL 272255Z AUTO 12006KT 10SM CLR M05/M10 A3039 RMK AO2
Loading
Personal Weather Stations






























Interactive Weather Map New forecast layout! Learn more

10-Day Weather Forecast

Advertisements
Track Severe Weather on mobile